sensor_id;sensor_type;location;lat;lon;timestamp;P1;durP1;ratioP1;P2;durP2;ratioP2
4198;SDS011;2113;50.946;14.610;2024-03-08T00:00:20;40.03;;;19.70;;
4198;SDS011;2113;50.946;14.610;2024-03-08T00:02:49;35.90;;;19.02;;
4198;SDS011;2113;50.946;14.610;2024-03-08T00:05:18;35.47;;;20.25;;
4198;SDS011;2113;50.946;14.610;2024-03-08T00:07:46;45.78;;;21.55;;
4198;SDS011;2113;50.946;14.610;2024-03-08T00:10:15;40.53;;;19.05;;
4198;SDS011;2113;50.946;14.610;2024-03-08T00:12:45;33.90;;;17.98;;
4198;SDS011;2113;50.946;14.610;2024-03-08T00:15:14;36.78;;;17.90;;
4198;SDS011;2113;50.946;14.610;2024-03-08T00:17:45;41.83;;;20.20;;
4198;SDS011;2113;50.946;14.610;2024-03-08T00:20:17;33.58;;;18.67;;
4198;SDS011;2113;50.946;14.610;2024-03-08T00:22:46;33.40;;;19.50;;
4198;SDS011;2113;50.946;14.610;2024-03-08T00:25:14;33.17;;;19.45;;
4198;SDS011;2113;50.946;14.610;2024-03-08T00:27:43;40.45;;;19.63;;
4198;SDS011;2113;50.946;14.610;2024-03-08T00:30:16;38.95;;;21.30;;
4198;SDS011;2113;50.946;14.610;2024-03-08T00:32:44;44.42;;;23.02;;
4198;SDS011;2113;50.946;14.610;2024-03-08T00:35:13;52.35;;;23.17;;
4198;SDS011;2113;50.946;14.610;2024-03-08T00:37:41;41.53;;;22.50;;
4198;SDS011;2113;50.946;14.610;2024-03-08T00:40:09;42.50;;;24.35;;
4198;SDS011;2113;50.946;14.610;2024-03-08T00:42:38;44.60;;;22.50;;
4198;SDS011;2113;50.946;14.610;2024-03-08T00:45:10;47.47;;;22.25;;
4198;SDS011;2113;50.946;14.610;2024-03-08T00:47:38;37.55;;;20.10;;
4198;SDS011;2113;50.946;14.610;2024-03-08T00:50:09;36.83;;;21.67;;
4198;SDS011;2113;50.946;14.610;2024-03-08T00:52:38;37.33;;;17.60;;
4198;SDS011;2113;50.946;14.610;2024-03-08T00:55:07;42.60;;;19.40;;
4198;SDS011;2113;50.946;14.610;2024-03-08T00:57:37;37.30;;;20.95;;
4198;SDS011;2113;50.946;14.610;2024-03-08T01:00:07;40.50;;;20.13;;
4198;SDS011;2113;50.946;14.610;2024-03-08T01:02:38;46.90;;;21.50;;
4198;SDS011;2113;50.946;14.610;2024-03-08T01:05:07;38.10;;;20.13;;
4198;SDS011;2113;50.946;14.610;2024-03-08T01:07:35;42.50;;;21.25;;
4198;SDS011;2113;50.946;14.610;2024-03-08T01:10:03;39.47;;;19.15;;
4198;SDS011;2113;50.946;14.610;2024-03-08T01:12:36;50.83;;;23.52;;
4198;SDS011;2113;50.946;14.610;2024-03-08T01:15:05;42.13;;;20.63;;
4198;SDS011;2113;50.946;14.610;2024-03-08T01:17:34;39.38;;;19.40;;
4198;SDS011;2113;50.946;14.610;2024-03-08T01:20:05;35.47;;;20.33;;
4198;SDS011;2113;50.946;14.610;2024-03-08T01:22:38;44.85;;;21.45;;
4198;SDS011;2113;50.946;14.610;2024-03-08T01:25:09;49.20;;;19.98;;
4198;SDS011;2113;50.946;14.610;2024-03-08T01:27:37;46.58;;;20.65;;
4198;SDS011;2113;50.946;14.610;2024-03-08T01:30:06;44.10;;;19.52;;
4198;SDS011;2113;50.946;14.610;2024-03-08T01:32:36;45.85;;;22.77;;
4198;SDS011;2113;50.946;14.610;2024-03-08T01:35:07;40.83;;;21.38;;
4198;SDS011;2113;50.946;14.610;2024-03-08T01:37:37;49.58;;;22.08;;
4198;SDS011;2113;50.946;14.610;2024-03-08T01:40:07;49.95;;;20.75;;
4198;SDS011;2113;50.946;14.610;2024-03-08T01:42:36;41.47;;;18.60;;
4198;SDS011;2113;50.946;14.610;2024-03-08T01:45:05;34.15;;;19.38;;
4198;SDS011;2113;50.946;14.610;2024-03-08T01:47:35;47.67;;;20.58;;
4198;SDS011;2113;50.946;14.610;2024-03-08T01:50:03;39.05;;;18.63;;
4198;SDS011;2113;50.946;14.610;2024-03-08T01:52:35;54.08;;;22.38;;
4198;SDS011;2113;50.946;14.610;2024-03-08T01:55:04;49.22;;;21.17;;
4198;SDS011;2113;50.946;14.610;2024-03-08T01:57:34;38.67;;;20.60;;
4198;SDS011;2113;50.946;14.610;2024-03-08T02:00:05;50.80;;;21.63;;
4198;SDS011;2113;50.946;14.610;2024-03-08T02:02:37;37.08;;;18.90;;
4198;SDS011;2113;50.946;14.610;2024-03-08T02:05:10;44.13;;;21.13;;
4198;SDS011;2113;50.946;14.610;2024-03-08T02:07:41;43.97;;;22.70;;
4198;SDS011;2113;50.946;14.610;2024-03-08T02:10:11;35.55;;;19.77;;
4198;SDS011;2113;50.946;14.610;2024-03-08T02:12:40;41.45;;;20.38;;
4198;SDS011;2113;50.946;14.610;2024-03-08T02:15:09;40.42;;;20.40;;
4198;SDS011;2113;50.946;14.610;2024-03-08T02:17:38;55.42;;;23.05;;
4198;SDS011;2113;50.946;14.610;2024-03-08T02:20:07;41.72;;;19.23;;
4198;SDS011;2113;50.946;14.610;2024-03-08T02:22:38;52.10;;;20.05;;
4198;SDS011;2113;50.946;14.610;2024-03-08T02:25:08;39.50;;;20.27;;
4198;SDS011;2113;50.946;14.610;2024-03-08T02:27:37;45.67;;;19.73;;
4198;SDS011;2113;50.946;14.610;2024-03-08T02:30:06;42.45;;;21.30;;
4198;SDS011;2113;50.946;14.610;2024-03-08T02:32:36;43.70;;;19.33;;
4198;SDS011;2113;50.946;14.610;2024-03-08T02:35:05;40.67;;;17.77;;
4198;SDS011;2113;50.946;14.610;2024-03-08T02:37:33;42.22;;;18.65;;
4198;SDS011;2113;50.946;14.610;2024-03-08T02:40:03;37.55;;;19.00;;
4198;SDS011;2113;50.946;14.610;2024-03-08T02:42:32;47.28;;;22.10;;
4198;SDS011;2113;50.946;14.610;2024-03-08T02:45:00;43.03;;;20.25;;
4198;SDS011;2113;50.946;14.610;2024-03-08T02:47:29;47.15;;;19.77;;
4198;SDS011;2113;50.946;14.610;2024-03-08T02:49:58;44.78;;;20.63;;
4198;SDS011;2113;50.946;14.610;2024-03-08T02:52:28;38.85;;;19.95;;
4198;SDS011;2113;50.946;14.610;2024-03-08T02:54:56;45.83;;;19.95;;
4198;SDS011;2113;50.946;14.610;2024-03-08T02:57:25;48.60;;;22.83;;
4198;SDS011;2113;50.946;14.610;2024-03-08T02:59:54;48.10;;;20.92;;
4198;SDS011;2113;50.946;14.610;2024-03-08T03:02:22;41.47;;;19.52;;
4198;SDS011;2113;50.946;14.610;2024-03-08T03:04:51;42.80;;;20.25;;
4198;SDS011;2113;50.946;14.610;2024-03-08T03:07:19;41.67;;;21.50;;
4198;SDS011;2113;50.946;14.610;2024-03-08T03:09:48;45.50;;;22.02;;
4198;SDS011;2113;50.946;14.610;2024-03-08T03:12:18;40.60;;;20.58;;
4198;SDS011;2113;50.946;14.610;2024-03-08T03:14:47;39.25;;;21.83;;
4198;SDS011;2113;50.946;14.610;2024-03-08T03:17:16;41.35;;;21.85;;
4198;SDS011;2113;50.946;14.610;2024-03-08T03:19:44;52.78;;;20.85;;
4198;SDS011;2113;50.946;14.610;2024-03-08T03:22:13;47.03;;;22.60;;
4198;SDS011;2113;50.946;14.610;2024-03-08T03:24:42;53.03;;;23.25;;
4198;SDS011;2113;50.946;14.610;2024-03-08T03:27:11;41.85;;;20.27;;
4198;SDS011;2113;50.946;14.610;2024-03-08T03:29:39;55.30;;;22.27;;
4198;SDS011;2113;50.946;14.610;2024-03-08T03:32:13;42.00;;;20.73;;
4198;SDS011;2113;50.946;14.610;2024-03-08T03:34:41;49.25;;;21.17;;
4198;SDS011;2113;50.946;14.610;2024-03-08T03:37:10;45.63;;;20.10;;
4198;SDS011;2113;50.946;14.610;2024-03-08T03:39:39;47.17;;;21.05;;
4198;SDS011;2113;50.946;14.610;2024-03-08T03:42:15;42.08;;;18.83;;
4198;SDS011;2113;50.946;14.610;2024-03-08T03:44:44;45.35;;;21.70;;
4198;SDS011;2113;50.946;14.610;2024-03-08T03:47:15;37.90;;;19.70;;
4198;SDS011;2113;50.946;14.610;2024-03-08T03:49:43;44.00;;;20.27;;
4198;SDS011;2113;50.946;14.610;2024-03-08T03:52:12;50.92;;;21.25;;
4198;SDS011;2113;50.946;14.610;2024-03-08T03:54:42;50.85;;;24.42;;
4198;SDS011;2113;50.946;14.610;2024-03-08T03:57:10;46.45;;;20.08;;
4198;SDS011;2113;50.946;14.610;2024-03-08T03:59:40;43.45;;;22.88;;
4198;SDS011;2113;50.946;14.610;2024-03-08T04:02:08;50.83;;;20.50;;
4198;SDS011;2113;50.946;14.610;2024-03-08T04:04:38;55.65;;;23.35;;
4198;SDS011;2113;50.946;14.610;2024-03-08T04:07:06;46.22;;;22.52;;
4198;SDS011;2113;50.946;14.610;2024-03-08T04:09:36;50.30;;;23.38;;
4198;SDS011;2113;50.946;14.610;2024-03-08T04:12:04;49.17;;;23.05;;
4198;SDS011;2113;50.946;14.610;2024-03-08T04:14:33;53.08;;;23.30;;
4198;SDS011;2113;50.946;14.610;2024-03-08T04:17:02;49.17;;;23.48;;
4198;SDS011;2113;50.946;14.610;2024-03-08T04:19:30;46.40;;;21.70;;
4198;SDS011;2113;50.946;14.610;2024-03-08T04:22:00;45.97;;;21.50;;
4198;SDS011;2113;50.946;14.610;2024-03-08T04:24:29;45.78;;;23.27;;
4198;SDS011;2113;50.946;14.610;2024-03-08T04:26:58;47.00;;;21.38;;
4198;SDS011;2113;50.946;14.610;2024-03-08T04:29:26;42.13;;;21.05;;
4198;SDS011;2113;50.946;14.610;2024-03-08T04:31:54;51.72;;;23.50;;
4198;SDS011;2113;50.946;14.610;2024-03-08T04:34:22;48.95;;;22.17;;
4198;SDS011;2113;50.946;14.610;2024-03-08T04:36:51;51.25;;;20.60;;
4198;SDS011;2113;50.946;14.610;2024-03-08T04:39:21;43.17;;;21.73;;
4198;SDS011;2113;50.946;14.610;2024-03-08T04:41:52;48.72;;;22.50;;
4198;SDS011;2113;50.946;14.610;2024-03-08T04:44:23;47.63;;;21.20;;
4198;SDS011;2113;50.946;14.610;2024-03-08T04:46:52;51.15;;;23.40;;
4198;SDS011;2113;50.946;14.610;2024-03-08T04:49:20;46.67;;;21.80;;
4198;SDS011;2113;50.946;14.610;2024-03-08T04:51:49;52.17;;;20.92;;
4198;SDS011;2113;50.946;14.610;2024-03-08T04:54:17;48.03;;;23.17;;
4198;SDS011;2113;50.946;14.610;2024-03-08T04:56:47;47.60;;;22.85;;
4198;SDS011;2113;50.946;14.610;2024-03-08T04:59:15;53.10;;;23.05;;
4198;SDS011;2113;50.946;14.610;2024-03-08T05:01:43;47.88;;;23.30;;
4198;SDS011;2113;50.946;14.610;2024-03-08T05:04:11;52.15;;;23.35;;
4198;SDS011;2113;50.946;14.610;2024-03-08T05:06:40;56.15;;;25.50;;
4198;SDS011;2113;50.946;14.610;2024-03-08T05:09:09;48.97;;;23.02;;
4198;SDS011;2113;50.946;14.610;2024-03-08T05:11:41;46.42;;;21.63;;
4198;SDS011;2113;50.946;14.610;2024-03-08T05:14:12;61.85;;;24.42;;
4198;SDS011;2113;50.946;14.610;2024-03-08T05:16:43;51.83;;;22.40;;
4198;SDS011;2113;50.946;14.610;2024-03-08T05:19:15;46.20;;;23.70;;
4198;SDS011;2113;50.946;14.610;2024-03-08T05:21:45;46.33;;;21.85;;
4198;SDS011;2113;50.946;14.610;2024-03-08T05:24:13;53.55;;;24.20;;
4198;SDS011;2113;50.946;14.610;2024-03-08T05:26:45;48.75;;;24.85;;
4198;SDS011;2113;50.946;14.610;2024-03-08T05:29:16;51.83;;;22.60;;
4198;SDS011;2113;50.946;14.610;2024-03-08T05:31:46;44.78;;;22.90;;
4198;SDS011;2113;50.946;14.610;2024-03-08T05:34:16;48.30;;;22.77;;
4198;SDS011;2113;50.946;14.610;2024-03-08T05:36:46;54.60;;;22.35;;
4198;SDS011;2113;50.946;14.610;2024-03-08T05:39:16;52.70;;;25.88;;
4198;SDS011;2113;50.946;14.610;2024-03-08T05:41:48;50.92;;;22.98;;
4198;SDS011;2113;50.946;14.610;2024-03-08T05:44:18;55.03;;;24.88;;
4198;SDS011;2113;50.946;14.610;2024-03-08T05:46:47;51.70;;;22.23;;
4198;SDS011;2113;50.946;14.610;2024-03-08T05:49:18;46.83;;;22.30;;
4198;SDS011;2113;50.946;14.610;2024-03-08T05:51:48;54.65;;;24.52;;
4198;SDS011;2113;50.946;14.610;2024-03-08T05:54:16;52.70;;;25.48;;
4198;SDS011;2113;50.946;14.610;2024-03-08T05:56:48;48.72;;;23.63;;
4198;SDS011;2113;50.946;14.610;2024-03-08T05:59:21;54.63;;;23.67;;
4198;SDS011;2113;50.946;14.610;2024-03-08T06:01:50;64.50;;;28.20;;
4198;SDS011;2113;50.946;14.610;2024-03-08T06:04:18;60.60;;;27.92;;
4198;SDS011;2113;50.946;14.610;2024-03-08T06:06:47;69.35;;;29.45;;
4198;SDS011;2113;50.946;14.610;2024-03-08T06:09:18;58.03;;;28.20;;
4198;SDS011;2113;50.946;14.610;2024-03-08T06:11:51;65.28;;;27.42;;
4198;SDS011;2113;50.946;14.610;2024-03-08T06:14:22;70.72;;;27.75;;
4198;SDS011;2113;50.946;14.610;2024-03-08T06:16:50;55.47;;;24.65;;
4198;SDS011;2113;50.946;14.610;2024-03-08T06:19:19;66.03;;;27.33;;
4198;SDS011;2113;50.946;14.610;2024-03-08T06:21:47;55.55;;;24.33;;
4198;SDS011;2113;50.946;14.610;2024-03-08T06:24:15;61.72;;;26.48;;
4198;SDS011;2113;50.946;14.610;2024-03-08T06:26:44;54.75;;;26.58;;
4198;SDS011;2113;50.946;14.610;2024-03-08T06:29:13;67.28;;;27.52;;
4198;SDS011;2113;50.946;14.610;2024-03-08T06:31:43;53.30;;;25.92;;
4198;SDS011;2113;50.946;14.610;2024-03-08T06:34:11;67.25;;;29.50;;
4198;SDS011;2113;50.946;14.610;2024-03-08T06:36:42;54.17;;;25.08;;
4198;SDS011;2113;50.946;14.610;2024-03-08T06:39:10;65.38;;;27.67;;
4198;SDS011;2113;50.946;14.610;2024-03-08T06:41:39;56.28;;;27.30;;
4198;SDS011;2113;50.946;14.610;2024-03-08T06:44:07;65.18;;;29.40;;
4198;SDS011;2113;50.946;14.610;2024-03-08T06:46:35;59.63;;;28.30;;
4198;SDS011;2113;50.946;14.610;2024-03-08T06:49:08;61.20;;;30.40;;
4198;SDS011;2113;50.946;14.610;2024-03-08T06:51:37;61.45;;;30.23;;
4198;SDS011;2113;50.946;14.610;2024-03-08T06:54:07;73.95;;;31.60;;
4198;SDS011;2113;50.946;14.610;2024-03-08T06:56:36;67.55;;;31.73;;
4198;SDS011;2113;50.946;14.610;2024-03-08T06:59:05;61.40;;;30.27;;
4198;SDS011;2113;50.946;14.610;2024-03-08T07:01:39;66.55;;;29.58;;
4198;SDS011;2113;50.946;14.610;2024-03-08T07:04:09;72.15;;;31.92;;
4198;SDS011;2113;50.946;14.610;2024-03-08T07:06:38;64.18;;;29.15;;
4198;SDS011;2113;50.946;14.610;2024-03-08T07:09:08;61.53;;;31.35;;
4198;SDS011;2113;50.946;14.610;2024-03-08T07:11:36;71.95;;;31.13;;
4198;SDS011;2113;50.946;14.610;2024-03-08T07:14:05;74.10;;;33.33;;
4198;SDS011;2113;50.946;14.610;2024-03-08T07:16:34;76.65;;;34.35;;
4198;SDS011;2113;50.946;14.610;2024-03-08T07:19:03;68.88;;;31.90;;
4198;SDS011;2113;50.946;14.610;2024-03-08T07:21:34;82.18;;;38.60;;
4198;SDS011;2113;50.946;14.610;2024-03-08T07:24:02;70.65;;;33.10;;
4198;SDS011;2113;50.946;14.610;2024-03-08T07:26:46;83.70;;;37.42;;
4198;SDS011;2113;50.946;14.610;2024-03-08T07:29:16;76.47;;;40.50;;
4198;SDS011;2113;50.946;14.610;2024-03-08T07:31:48;85.30;;;47.17;;
4198;SDS011;2113;50.946;14.610;2024-03-08T07:34:27;73.68;;;37.30;;
4198;SDS011;2113;50.946;14.610;2024-03-08T07:37:00;65.20;;;35.03;;
4198;SDS011;2113;50.946;14.610;2024-03-08T07:39:31;62.20;;;34.33;;
4198;SDS011;2113;50.946;14.610;2024-03-08T07:41:59;58.25;;;32.08;;
4198;SDS011;2113;50.946;14.610;2024-03-08T07:44:28;51.85;;;31.35;;
4198;SDS011;2113;50.946;14.610;2024-03-08T07:46:58;52.25;;;30.92;;
4198;SDS011;2113;50.946;14.610;2024-03-08T07:49:26;45.95;;;29.48;;
4198;SDS011;2113;50.946;14.610;2024-03-08T07:51:54;60.33;;;35.30;;
4198;SDS011;2113;50.946;14.610;2024-03-08T07:54:24;48.72;;;30.48;;
4198;SDS011;2113;50.946;14.610;2024-03-08T07:56:53;51.42;;;31.80;;
4198;SDS011;2113;50.946;14.610;2024-03-08T07:59:21;52.00;;;31.10;;
4198;SDS011;2113;50.946;14.610;2024-03-08T08:01:50;48.42;;;28.13;;
4198;SDS011;2113;50.946;14.610;2024-03-08T08:04:18;54.10;;;28.55;;
4198;SDS011;2113;50.946;14.610;2024-03-08T08:06:51;46.08;;;29.83;;
4198;SDS011;2113;50.946;14.610;2024-03-08T08:09:22;44.70;;;27.10;;
4198;SDS011;2113;50.946;14.610;2024-03-08T08:12:01;43.83;;;26.00;;
4198;SDS011;2113;50.946;14.610;2024-03-08T08:14:30;48.05;;;28.38;;
4198;SDS011;2113;50.946;14.610;2024-03-08T08:16:58;50.55;;;29.65;;
4198;SDS011;2113;50.946;14.610;2024-03-08T08:19:30;48.55;;;28.90;;
4198;SDS011;2113;50.946;14.610;2024-03-08T08:21:58;44.25;;;27.50;;
4198;SDS011;2113;50.946;14.610;2024-03-08T08:24:27;44.85;;;29.27;;
4198;SDS011;2113;50.946;14.610;2024-03-08T08:26:56;42.72;;;28.00;;
4198;SDS011;2113;50.946;14.610;2024-03-08T08:29:25;42.85;;;27.10;;
4198;SDS011;2113;50.946;14.610;2024-03-08T08:31:57;44.28;;;28.17;;
4198;SDS011;2113;50.946;14.610;2024-03-08T08:34:29;46.25;;;31.48;;
4198;SDS011;2113;50.946;14.610;2024-03-08T08:36:58;52.83;;;32.08;;
4198;SDS011;2113;50.946;14.610;2024-03-08T08:39:27;46.53;;;29.70;;
4198;SDS011;2113;50.946;14.610;2024-03-08T08:41:55;52.42;;;32.28;;
4198;SDS011;2113;50.946;14.610;2024-03-08T08:44:24;45.05;;;28.58;;
4198;SDS011;2113;50.946;14.610;2024-03-08T08:46:54;40.25;;;25.00;;
4198;SDS011;2113;50.946;14.610;2024-03-08T08:49:31;43.25;;;27.85;;
4198;SDS011;2113;50.946;14.610;2024-03-08T08:52:00;41.85;;;24.02;;
4198;SDS011;2113;50.946;14.610;2024-03-08T08:54:42;39.25;;;25.33;;
4198;SDS011;2113;50.946;14.610;2024-03-08T08:57:16;46.08;;;25.92;;
4198;SDS011;2113;50.946;14.610;2024-03-08T08:59:45;42.45;;;24.35;;
4198;SDS011;2113;50.946;14.610;2024-03-08T09:02:13;35.65;;;24.20;;
4198;SDS011;2113;50.946;14.610;2024-03-08T09:04:45;38.17;;;24.10;;
4198;SDS011;2113;50.946;14.610;2024-03-08T09:07:14;39.33;;;25.00;;
4198;SDS011;2113;50.946;14.610;2024-03-08T09:09:45;36.45;;;23.80;;
4198;SDS011;2113;50.946;14.610;2024-03-08T09:12:13;39.25;;;23.15;;
4198;SDS011;2113;50.946;14.610;2024-03-08T09:14:41;40.90;;;26.90;;
4198;SDS011;2113;50.946;14.610;2024-03-08T09:17:09;45.85;;;24.75;;
4198;SDS011;2113;50.946;14.610;2024-03-08T09:19:38;39.80;;;25.20;;
4198;SDS011;2113;50.946;14.610;2024-03-08T09:22:06;40.00;;;25.25;;
4198;SDS011;2113;50.946;14.610;2024-03-08T09:24:35;40.42;;;24.25;;
4198;SDS011;2113;50.946;14.610;2024-03-08T09:27:04;41.72;;;27.05;;
4198;SDS011;2113;50.946;14.610;2024-03-08T09:29:33;41.97;;;26.27;;
4198;SDS011;2113;50.946;14.610;2024-03-08T09:32:02;40.83;;;25.45;;
4198;SDS011;2113;50.946;14.610;2024-03-08T09:34:31;40.78;;;25.88;;
4198;SDS011;2113;50.946;14.610;2024-03-08T09:37:04;52.90;;;34.63;;
4198;SDS011;2113;50.946;14.610;2024-03-08T09:39:32;39.92;;;25.42;;
4198;SDS011;2113;50.946;14.610;2024-03-08T09:42:01;38.50;;;25.52;;
4198;SDS011;2113;50.946;14.610;2024-03-08T09:44:30;43.78;;;26.98;;
4198;SDS011;2113;50.946;14.610;2024-03-08T09:46:59;46.65;;;34.58;;
4198;SDS011;2113;50.946;14.610;2024-03-08T09:49:29;43.00;;;28.02;;
4198;SDS011;2113;50.946;14.610;2024-03-08T09:52:02;42.33;;;27.23;;
4198;SDS011;2113;50.946;14.610;2024-03-08T09:54:32;45.03;;;28.48;;
4198;SDS011;2113;50.946;14.610;2024-03-08T09:57:00;38.42;;;25.60;;
4198;SDS011;2113;50.946;14.610;2024-03-08T09:59:32;43.53;;;26.15;;
4198;SDS011;2113;50.946;14.610;2024-03-08T10:02:15;36.20;;;25.30;;
4198;SDS011;2113;50.946;14.610;2024-03-08T10:04:44;35.22;;;24.38;;
4198;SDS011;2113;50.946;14.610;2024-03-08T10:07:17;49.40;;;28.98;;
4198;SDS011;2113;50.946;14.610;2024-03-08T10:09:45;37.25;;;24.70;;
4198;SDS011;2113;50.946;14.610;2024-03-08T10:12:19;44.13;;;26.17;;
4198;SDS011;2113;50.946;14.610;2024-03-08T10:14:49;41.65;;;25.52;;
4198;SDS011;2113;50.946;14.610;2024-03-08T10:17:19;36.35;;;22.35;;
4198;SDS011;2113;50.946;14.610;2024-03-08T10:19:51;37.60;;;23.92;;
4198;SDS011;2113;50.946;14.610;2024-03-08T10:22:21;35.15;;;21.33;;
4198;SDS011;2113;50.946;14.610;2024-03-08T10:24:50;30.20;;;20.60;;
4198;SDS011;2113;50.946;14.610;2024-03-08T10:27:18;37.55;;;23.55;;
4198;SDS011;2113;50.946;14.610;2024-03-08T10:29:48;34.05;;;21.08;;
4198;SDS011;2113;50.946;14.610;2024-03-08T10:32:18;33.92;;;21.52;;
4198;SDS011;2113;50.946;14.610;2024-03-08T10:34:48;37.55;;;20.20;;
4198;SDS011;2113;50.946;14.610;2024-03-08T10:37:18;32.17;;;19.50;;
4198;SDS011;2113;50.946;14.610;2024-03-08T10:39:54;38.00;;;21.17;;
4198;SDS011;2113;50.946;14.610;2024-03-08T10:42:40;28.60;;;19.38;;
4198;SDS011;2113;50.946;14.610;2024-03-08T10:45:13;33.50;;;19.80;;
4198;SDS011;2113;50.946;14.610;2024-03-08T10:47:49;31.98;;;19.83;;
4198;SDS011;2113;50.946;14.610;2024-03-08T10:50:26;28.25;;;18.08;;
4198;SDS011;2113;50.946;14.610;2024-03-08T10:53:01;29.90;;;18.17;;
4198;SDS011;2113;50.946;14.610;2024-03-08T10:55:33;29.65;;;19.52;;
4198;SDS011;2113;50.946;14.610;2024-03-08T10:58:04;32.05;;;20.27;;
4198;SDS011;2113;50.946;14.610;2024-03-08T11:00:36;30.95;;;18.73;;
4198;SDS011;2113;50.946;14.610;2024-03-08T11:03:05;35.15;;;21.83;;
4198;SDS011;2113;50.946;14.610;2024-03-08T11:05:36;34.17;;;20.58;;
4198;SDS011;2113;50.946;14.610;2024-03-08T11:08:16;30.70;;;19.08;;
4198;SDS011;2113;50.946;14.610;2024-03-08T11:10:48;34.92;;;20.90;;
4198;SDS011;2113;50.946;14.610;2024-03-08T11:13:32;31.33;;;19.30;;
4198;SDS011;2113;50.946;14.610;2024-03-08T11:16:02;30.17;;;18.77;;
4198;SDS011;2113;50.946;14.610;2024-03-08T11:18:36;27.83;;;17.58;;
4198;SDS011;2113;50.946;14.610;2024-03-08T11:21:08;31.95;;;19.95;;
4198;SDS011;2113;50.946;14.610;2024-03-08T11:23:39;28.10;;;19.00;;
4198;SDS011;2113;50.946;14.610;2024-03-08T11:26:17;30.52;;;18.58;;
4198;SDS011;2113;50.946;14.610;2024-03-08T11:28:46;31.75;;;16.60;;
4198;SDS011;2113;50.946;14.610;2024-03-08T11:31:25;30.50;;;18.50;;
4198;SDS011;2113;50.946;14.610;2024-03-08T11:33:55;29.80;;;17.33;;
4198;SDS011;2113;50.946;14.610;2024-03-08T11:36:24;37.83;;;21.15;;
4198;SDS011;2113;50.946;14.610;2024-03-08T11:38:53;34.10;;;21.48;;
4198;SDS011;2113;50.946;14.610;2024-03-08T11:41:23;38.95;;;22.75;;
4198;SDS011;2113;50.946;14.610;2024-03-08T11:44:01;35.25;;;18.75;;
4198;SDS011;2113;50.946;14.610;2024-03-08T11:46:33;33.58;;;17.45;;
4198;SDS011;2113;50.946;14.610;2024-03-08T11:49:01;29.65;;;16.90;;
4198;SDS011;2113;50.946;14.610;2024-03-08T11:51:30;26.77;;;17.17;;
4198;SDS011;2113;50.946;14.610;2024-03-08T11:54:00;29.30;;;18.80;;
4198;SDS011;2113;50.946;14.610;2024-03-08T11:56:33;30.05;;;18.75;;
4198;SDS011;2113;50.946;14.610;2024-03-08T11:59:01;29.52;;;18.65;;
4198;SDS011;2113;50.946;14.610;2024-03-08T12:01:29;31.92;;;19.23;;
4198;SDS011;2113;50.946;14.610;2024-03-08T12:04:00;31.00;;;20.02;;
4198;SDS011;2113;50.946;14.610;2024-03-08T12:06:36;35.60;;;21.65;;
4198;SDS011;2113;50.946;14.610;2024-03-08T12:09:08;33.75;;;19.05;;
4198;SDS011;2113;50.946;14.610;2024-03-08T12:11:37;33.85;;;20.60;;
4198;SDS011;2113;50.946;14.610;2024-03-08T12:14:06;30.33;;;19.23;;
4198;SDS011;2113;50.946;14.610;2024-03-08T12:16:36;31.55;;;21.02;;
4198;SDS011;2113;50.946;14.610;2024-03-08T12:19:06;36.72;;;22.02;;
4198;SDS011;2113;50.946;14.610;2024-03-08T12:21:42;27.55;;;17.10;;
4198;SDS011;2113;50.946;14.610;2024-03-08T12:24:18;28.35;;;17.27;;
4198;SDS011;2113;50.946;14.610;2024-03-08T12:26:48;30.85;;;17.55;;
4198;SDS011;2113;50.946;14.610;2024-03-08T12:29:17;29.92;;;16.98;;
4198;SDS011;2113;50.946;14.610;2024-03-08T12:31:50;27.33;;;16.63;;
4198;SDS011;2113;50.946;14.610;2024-03-08T12:34:22;24.27;;;16.52;;
4198;SDS011;2113;50.946;14.610;2024-03-08T12:36:51;24.42;;;14.48;;
4198;SDS011;2113;50.946;14.610;2024-03-08T12:39:21;24.33;;;15.38;;
4198;SDS011;2113;50.946;14.610;2024-03-08T12:41:54;27.92;;;16.25;;
4198;SDS011;2113;50.946;14.610;2024-03-08T12:44:24;23.33;;;14.30;;
4198;SDS011;2113;50.946;14.610;2024-03-08T12:46:53;18.63;;;13.25;;
4198;SDS011;2113;50.946;14.610;2024-03-08T12:49:23;22.13;;;12.88;;
4198;SDS011;2113;50.946;14.610;2024-03-08T12:51:52;31.77;;;17.50;;
4198;SDS011;2113;50.946;14.610;2024-03-08T12:54:20;21.10;;;13.38;;
4198;SDS011;2113;50.946;14.610;2024-03-08T12:56:51;31.65;;;16.67;;
4198;SDS011;2113;50.946;14.610;2024-03-08T12:59:21;32.92;;;16.63;;
4198;SDS011;2113;50.946;14.610;2024-03-08T13:01:52;21.38;;;14.00;;
4198;SDS011;2113;50.946;14.610;2024-03-08T13:04:26;24.10;;;13.85;;
4198;SDS011;2113;50.946;14.610;2024-03-08T13:06:55;19.02;;;11.93;;
4198;SDS011;2113;50.946;14.610;2024-03-08T13:09:24;29.10;;;15.25;;
4198;SDS011;2113;50.946;14.610;2024-03-08T13:11:54;23.13;;;15.57;;
4198;SDS011;2113;50.946;14.610;2024-03-08T13:14:25;23.88;;;14.20;;
4198;SDS011;2113;50.946;14.610;2024-03-08T13:16:54;22.45;;;14.57;;
4198;SDS011;2113;50.946;14.610;2024-03-08T13:19:23;28.42;;;17.10;;
4198;SDS011;2113;50.946;14.610;2024-03-08T13:21:56;25.45;;;16.35;;
4198;SDS011;2113;50.946;14.610;2024-03-08T13:24:24;31.48;;;17.92;;
4198;SDS011;2113;50.946;14.610;2024-03-08T13:26:52;25.13;;;15.20;;
4198;SDS011;2113;50.946;14.610;2024-03-08T13:29:21;27.88;;;16.42;;
4198;SDS011;2113;50.946;14.610;2024-03-08T13:31:49;24.92;;;14.95;;
4198;SDS011;2113;50.946;14.610;2024-03-08T13:34:19;28.20;;;15.60;;
4198;SDS011;2113;50.946;14.610;2024-03-08T13:36:56;30.83;;;15.30;;
4198;SDS011;2113;50.946;14.610;2024-03-08T13:39:27;33.22;;;15.90;;
4198;SDS011;2113;50.946;14.610;2024-03-08T13:41:57;25.85;;;15.38;;
4198;SDS011;2113;50.946;14.610;2024-03-08T13:44:26;21.67;;;14.73;;
4198;SDS011;2113;50.946;14.610;2024-03-08T13:46:54;24.30;;;14.50;;
4198;SDS011;2113;50.946;14.610;2024-03-08T13:49:25;29.08;;;17.70;;
4198;SDS011;2113;50.946;14.610;2024-03-08T13:51:55;34.67;;;17.20;;
4198;SDS011;2113;50.946;14.610;2024-03-08T13:54:25;24.02;;;16.30;;
4198;SDS011;2113;50.946;14.610;2024-03-08T13:56:57;26.08;;;15.23;;
4198;SDS011;2113;50.946;14.610;2024-03-08T13:59:26;27.05;;;16.40;;
4198;SDS011;2113;50.946;14.610;2024-03-08T14:33:52;47.80;;;26.55;;
4198;SDS011;2113;50.946;14.610;2024-03-08T14:36:22;45.80;;;24.75;;
4198;SDS011;2113;50.946;14.610;2024-03-08T14:38:52;53.10;;;29.13;;
4198;SDS011;2113;50.946;14.610;2024-03-08T14:41:20;51.85;;;25.02;;
4198;SDS011;2113;50.946;14.610;2024-03-08T14:43:49;48.35;;;27.60;;
4198;SDS011;2113;50.946;14.610;2024-03-08T14:46:19;49.80;;;27.90;;
4198;SDS011;2113;50.946;14.610;2024-03-08T14:48:51;51.85;;;27.98;;
4198;SDS011;2113;50.946;14.610;2024-03-08T14:51:19;48.95;;;25.92;;
4198;SDS011;2113;50.946;14.610;2024-03-08T14:53:52;47.58;;;27.67;;
4198;SDS011;2113;50.946;14.610;2024-03-08T14:56:21;47.25;;;26.20;;
4198;SDS011;2113;50.946;14.610;2024-03-08T14:58:49;48.22;;;26.25;;
4198;SDS011;2113;50.946;14.610;2024-03-08T15:01:19;51.15;;;29.33;;
4198;SDS011;2113;50.946;14.610;2024-03-08T15:03:52;49.28;;;26.40;;
4198;SDS011;2113;50.946;14.610;2024-03-08T15:06:22;52.63;;;26.10;;
4198;SDS011;2113;50.946;14.610;2024-03-08T15:08:51;50.38;;;27.63;;
4198;SDS011;2113;50.946;14.610;2024-03-08T15:11:19;54.75;;;27.25;;
4198;SDS011;2113;50.946;14.610;2024-03-08T15:13:52;48.42;;;27.75;;
4198;SDS011;2113;50.946;14.610;2024-03-08T15:16:21;48.25;;;27.00;;
4198;SDS011;2113;50.946;14.610;2024-03-08T15:18:50;61.58;;;30.02;;
4198;SDS011;2113;50.946;14.610;2024-03-08T15:21:21;52.30;;;30.85;;